CheckWX is a tool to help pilots better visualize weather data.  It is not intended as a substitute for an official pre-flight weather briefing.

14:56:44 UTC

KFAM METAR
Farmington Regional Airport
Farmington, Missouri, USA
Current

1 hour ago

KFAM 221356Z AUTO 10SM CLR 19/12 A3009 RMK AO2 SLP183 T01890117 $
Observed
Apr-22 @ 13:56 UTC
Visibility
10 SM
Flight Rules
VFR
Cloud Levels
  • Clear skies
Temperature
19°C / 66°F
Dewpoint
12°C / 54°F
Humidity
64%
Altimeter
30.09" Hg
Pressure
1018.92 hPa
Previous

2 hours ago

KFAM 221256Z AUTO 10SM FEW110 16/11 A3009 RMK AO2 SLP185 T01560106 $
Observed
Apr-22 @ 12:56 UTC
Visibility
10 SM
Flight Rules
VFR
Cloud Levels
  • Few at 11,000' AGL
Temperature
16°C / 61°F
Dewpoint
11°C / 52°F
Humidity
72%
Altimeter
30.09" Hg
Pressure
1018.92 hPa
Previous

3 hours ago

KFAM 221156Z AUTO 00000KT 10SM CLR 14/10 A3009 RMK AO2 SLP184 T01440100 10167 20144 53008
Observed
Apr-22 @ 11:56 UTC
Visibility
10 SM
Flight Rules
VFR
Cloud Levels
  • Clear skies
Temperature
14°C / 57°F
Dewpoint
10°C / 50°F
Humidity
77%
Altimeter
30.09" Hg
Pressure
1018.92 hPa